Impacts METAR Board
IDs:

KTEX - Telluride Rgnl, CO, US

Updated at: 0100 UTC 06 Dec 2019
Potential Impact None Slight Moderate High
Time 05/13Z 05/14Z 05/15Z 05/16Z 05/17Z 05/18Z 05/19Z 05/20Z 05/21Z 05/22Z 05/23Z 06/00Z 06/01Z
Temp32 32 32 32 32 30 30 32 32 32 32 30 28
Dewpt27 27 27 28 28 28 28 28 27 28 27 27 28
Altim30.02 30.05 30.06 30.08 30.09 30.13 30.14 30.14 30.14 30.18 30.21 30.23 30.25
VIS10 10 10 1.75 10 0.25 1 2 10 0.75 10 10 10
CIG110 42 34 31 33 3 6 25 28 8 41 33 13
CoverOVCOVCOVCOVCOVCOVCOVCOVCOVCOVCBKNOVCOVC
FltCatVFRVFRVFRIFRVFRLIFRIFRIFRMVFRLIFRVFRVFRMVFR
WX-------SN--+SN-SN-SN---SN------
WDir180000130290027029031026000
WSpd3 0 0 0 3 3 0 3 7 4 5 0 0
WGst14 -- -- -- -- -- -- -- -- -- -- -- --
Raw hourly METARs
KTEX 051255Z AUTO 18003G14KT 10SM SCT016 SCT039 OVC110 00/M03 A3002 RMK AO2
KTEX 051355Z AUTO 00000KT 10SM SCT019 BKN042 OVC050 00/M03 A3005 RMK AO2
KTEX 051455Z AUTO 00000KT 10SM BKN034 OVC044 00/M03 A3006 RMK AO2
KTEX 051555Z AUTO 00000KT 1 3/4SM -SN SCT021 OVC031 00/M02 A3008 RMK AO2 VIS 1 1/4V3
KTEX 051655Z AUTO 13003KT 10SM SCT027 BKN033 OVC050 00/M02 A3009 RMK AO2
KTEX 051755Z AUTO 29003KT M1/4SM +SN OVC003 M01/M02 A3013 RMK AO2
KTEX 051855Z AUTO 00000KT 1SM -SN BKN006 OVC015 M01/M02 A3014 RMK AO2
KTEX 051955Z AUTO 27003KT 2SM -SN SCT005 SCT014 OVC025 00/M02 A3014 RMK AO2
KTEX 052055Z AUTO 29007KT 10SM BKN028 OVC036 00/M03 A3014 RMK AO2 P0006
KTEX 052155Z AUTO 31004KT 3/4SM -SN BKN008 BKN014 OVC025 00/M02 A3018 RMK AO2
KTEX 052255Z AUTO 26005KT 10SM BKN041 00/M03 A3021 RMK AO2
KTEX 052355Z AUTO 00000KT 10SM SCT028 OVC033 M01/M03 A3023 RMK AO2
KTEX 060055Z AUTO 00000KT 10SM OVC013 M02/M02 A3025 RMK AO2



Page loaded:  01:05 UTC  |   05:05 PM Pacific  |   06:05 PM Mountain  |   07:05 PM Central  |   08:05 PM Eastern

 

ADVISORIES

FORECASTS

FORECASTS

OBSERVATIONS

USER TOOLS

ABOUT US